createdAt,value
2023-05-12T00:04:10.048Z,101726.63
2023-05-12T00:08:11.055Z,101723.79
2023-05-12T00:12:02.129Z,101723.61
2023-05-12T00:16:05.368Z,101729.62
2023-05-12T00:20:07.014Z,101731.94
2023-05-12T00:24:16.420Z,101726.81
2023-05-12T00:28:25.825Z,101728.07
2023-05-12T00:32:33.876Z,101728.91
2023-05-12T00:36:43.361Z,101730.85
2023-05-12T00:40:42.655Z,101736.16
2023-05-12T00:44:44.525Z,101740.52
2023-05-12T00:48:54.053Z,101740.13
2023-05-12T00:53:03.492Z,101742.52
2023-05-12T00:56:37.972Z,101744.73
2023-05-12T01:00:29.141Z,101746.23
2023-05-12T01:04:06.171Z,101750.80
2023-05-12T01:08:07.358Z,101755.38
2023-05-12T01:12:09.386Z,101757.31
2023-05-12T01:16:18.808Z,101760.81
2023-05-12T01:20:20.199Z,101767.84
2023-05-12T01:24:29.778Z,101769.27
2023-05-12T01:28:22.271Z,101769.16
2023-05-12T01:31:53.727Z,101771.67
2023-05-12T01:36:01.878Z,101770.89
2023-05-12T01:39:54.727Z,101774.02
2023-05-12T01:44:00.072Z,101775.40
2023-05-12T01:47:34.384Z,101778.34
2023-05-12T01:51:43.032Z,101778.66
2023-05-12T01:55:44.991Z,101781.43
2023-05-12T01:59:54.452Z,101782.98
2023-05-12T02:03:53.002Z,101784.67
2023-05-12T02:07:55.924Z,101786.06
2023-05-12T02:12:08.255Z,101787.66
2023-05-12T02:16:17.854Z,101783.92
2023-05-12T02:20:18.934Z,101787.26
2023-05-12T02:24:05.681Z,101791.84
2023-05-12T02:28:15.344Z,101788.96
2023-05-12T02:32:24.960Z,101786.71
2023-05-12T02:36:34.446Z,101790.91
2023-05-12T02:40:26.625Z,101792.95
2023-05-12T02:44:29.765Z,101793.25
2023-05-12T02:47:56.732Z,101795.17
2023-05-12T02:51:46.069Z,101797.88
2023-05-12T02:55:48.225Z,101798.00
2023-05-12T02:59:57.603Z,101800.18
2023-05-12T03:04:05.827Z,101803.35
2023-05-12T03:08:15.455Z,101804.86
2023-05-12T03:12:13.991Z,101807.73
2023-05-12T03:16:23.474Z,101802.39
2023-05-12T03:20:21.671Z,101805.91
2023-05-12T03:23:37.439Z,101803.68
2023-05-12T03:27:29.472Z,101801.77
2023-05-12T03:31:18.181Z,101802.14
2023-05-12T03:35:17.539Z,101801.66
2023-05-12T03:39:24.710Z,101802.02
2023-05-12T03:43:23.573Z,101809.11
2023-05-12T03:47:33.122Z,101806.79
2023-05-12T03:51:42.620Z,101810.50
2023-05-12T03:55:52.217Z,101812.63
2023-05-12T03:59:17.535Z,101814.45
2023-05-12T04:02:28.292Z,101812.63
2023-05-12T04:06:15.892Z,101816.41
2023-05-12T04:10:05.180Z,101815.98
2023-05-12T04:13:33.211Z,101820.27
2023-05-12T04:16:22.739Z,101817.10
2023-05-12T04:19:21.058Z,101820.50
2023-05-12T04:23:22.006Z,101823.55
2023-05-12T04:27:24.024Z,101824.73
2023-05-12T04:30:50.961Z,101828.87
2023-05-12T04:34:49.353Z,101832.64
2023-05-12T04:38:04.562Z,101834.47
2023-05-12T04:41:44.150Z,101832.67
2023-05-12T04:45:26.185Z,101837.35
2023-05-12T04:48:48.242Z,101838.54
2023-05-12T04:51:44.477Z,101842.63
2023-05-12T04:54:55.907Z,101843.09
2023-05-12T04:58:33.776Z,101846.84
2023-05-12T05:01:54.486Z,101851.64
2023-05-12T05:05:23.629Z,101857.11
2023-05-12T05:08:53.278Z,101860.83
2023-05-12T05:12:13.331Z,101860.21
2023-05-12T05:15:23.691Z,101860.77
2023-05-12T05:18:47.873Z,101857.14
2023-05-12T05:22:05.990Z,101854.93
2023-05-12T05:25:56.980Z,101855.34
2023-05-12T05:29:07.472Z,101856.17
2023-05-12T05:32:47.585Z,101858.14
2023-05-12T05:36:38.247Z,101861.73
2023-05-12T05:39:50.169Z,101862.27
2023-05-12T05:43:05.886Z,101866.17
2023-05-12T05:46:45.355Z,101868.32
2023-05-12T05:49:29.563Z,101872.95
2023-05-12T05:52:34.857Z,101875.36
2023-05-12T05:55:38.565Z,101876.73
2023-05-12T05:58:42.620Z,101879.50
2023-05-12T06:02:00.726Z,101884.23
2023-05-12T06:04:35.841Z,101888.72
2023-05-12T06:08:24.505Z,101891.41
2023-05-12T06:12:30.057Z,101897.58
2023-05-12T06:16:12.028Z,101900.14
2023-05-12T06:20:15.315Z,101902.27
2023-05-12T06:23:09.402Z,101903.58
2023-05-12T06:26:03.462Z,101903.98
2023-05-12T06:29:29.930Z,101903.73
2023-05-12T06:32:48.750Z,101906.29
2023-05-12T06:35:49.153Z,101910.17
2023-05-12T06:38:41.670Z,101915.30
2023-05-12T06:42:09.144Z,101915.39
2023-05-12T06:45:40.310Z,101915.27
2023-05-12T06:49:04.148Z,101918.65
2023-05-12T06:52:40.525Z,101920.13
2023-05-12T06:56:29.768Z,101918.80
2023-05-12T07:00:20.606Z,101919.03
2023-05-12T07:03:57.392Z,101917.83
2023-05-12T07:07:23.747Z,101919.79
2023-05-12T07:11:01.874Z,101914.58
2023-05-12T07:14:01.788Z,101914.78
2023-05-12T07:17:20.765Z,101913.27
2023-05-12T07:20:31.774Z,101917.16
2023-05-12T07:24:12.534Z,101918.23
2023-05-12T07:27:25.123Z,101919.78
2023-05-12T07:30:39.603Z,101923.86
2023-05-12T07:33:58.845Z,101925.48
2023-05-12T07:37:51.099Z,101926.73
2023-05-12T07:41:21.612Z,101930.98
2023-05-12T07:43:50.596Z,101929.30
2023-05-12T07:46:42.499Z,101928.83
2023-05-12T07:49:47.388Z,101930.98
2023-05-12T07:52:28.952Z,101932.59
2023-05-12T07:55:37.999Z,101935.44
2023-05-12T07:58:12.459Z,101934.14
2023-05-12T08:01:24.622Z,101936.98
2023-05-12T08:04:15.240Z,101934.41
2023-05-12T08:07:22.895Z,101935.52
2023-05-12T08:10:34.420Z,101940.08
2023-05-12T08:14:07.047Z,101942.34
2023-05-12T08:17:21.756Z,101940.07
2023-05-12T08:20:36.698Z,101941.13
2023-05-12T08:24:28.196Z,101941.81
2023-05-12T08:27:52.722Z,101942.86
2023-05-12T08:30:56.849Z,101943.45
2023-05-12T08:34:22.338Z,101946.98
2023-05-12T08:37:34.351Z,101948.91
2023-05-12T08:40:58.857Z,101951.15
2023-05-12T08:44:19.666Z,101953.25
2023-05-12T08:47:04.315Z,101953.90
2023-05-12T08:50:49.216Z,101950.60
2023-05-12T08:53:45.394Z,101952.20
2023-05-12T08:59:14.846Z,101949.20
2023-05-12T09:02:18.946Z,101949.48
2023-05-12T09:05:14.420Z,101951.67
2023-05-12T09:07:46.774Z,101950.48
2023-05-12T09:13:26.329Z,101951.94
2023-05-12T09:16:04.772Z,101947.04
2023-05-12T09:18:54.763Z,101946.05
2023-05-12T09:21:24.048Z,101942.67
2023-05-12T09:23:57.060Z,101944.01
2023-05-12T09:26:34.492Z,101944.85
2023-05-12T09:29:08.608Z,101941.70
2023-05-12T09:32:09.263Z,101941.11
2023-05-12T09:34:51.783Z,101938.96
2023-05-12T09:37:38.390Z,101935.92
2023-05-12T09:40:58.061Z,101933.92
2023-05-12T09:43:50.512Z,101933.54
2023-05-12T09:46:40.963Z,101931.27
2023-05-12T09:50:12.779Z,101931.64
2023-05-12T09:53:12.809Z,101932.23
2023-05-12T09:56:13.825Z,101930.20
2023-05-12T09:59:26.749Z,101922.58
2023-05-12T10:02:42.378Z,101919.06
2023-05-12T10:06:07.902Z,101918.05
2023-05-12T10:09:49.043Z,101920.02
2023-05-12T10:13:14.724Z,101916.80
2023-05-12T10:16:28.601Z,101913.59
2023-05-12T10:19:52.945Z,101910.21
2023-05-12T10:22:32.043Z,101909.98
2023-05-12T10:25:39.721Z,101909.95
2023-05-12T10:29:15.520Z,101908.48
2023-05-12T10:31:52.720Z,101912.84
2023-05-12T10:34:52.615Z,101911.27
2023-05-12T10:37:33.439Z,101909.09
2023-05-12T10:40:43.228Z,101908.02
2023-05-12T10:43:36.695Z,101909.20
2023-05-12T10:46:50.797Z,101905.45
2023-05-12T10:49:55.318Z,101902.86
2023-05-12T10:52:26.917Z,101897.52
2023-05-12T10:55:14.678Z,101893.99
2023-05-12T10:57:54.441Z,101898.80
2023-05-12T11:01:08.190Z,101892.50
2023-05-12T11:03:54.473Z,101892.73
2023-05-12T11:06:44.981Z,101892.32
2023-05-12T11:10:13.299Z,101892.60
2023-05-12T11:12:56.599Z,101891.09
2023-05-12T11:15:28.803Z,101890.13
2023-05-12T11:18:13.080Z,101888.06
2023-05-12T11:21:17.865Z,101890.61
2023-05-12T11:24:17.883Z,101889.96
2023-05-12T11:27:39.312Z,101890.44
2023-05-12T11:30:37.111Z,101891.90
2023-05-12T11:37:26.603Z,101892.80
2023-05-12T11:40:49.949Z,101890.48
2023-05-12T11:44:53.083Z,101887.11
2023-05-12T11:47:54.642Z,101887.73
2023-05-12T11:50:44.735Z,101884.98
2023-05-12T11:53:50.683Z,101883.95
2023-05-12T11:56:57.052Z,101890.45
2023-05-12T11:59:40.458Z,101887.35
2023-05-12T12:02:43.333Z,101885.66
2023-05-12T12:05:24.764Z,101883.11
2023-05-12T12:08:13.253Z,101887.40
2023-05-12T12:10:47.892Z,101886.92
2023-05-12T12:13:27.175Z,101888.77
2023-05-12T12:16:00.921Z,101886.86
2023-05-12T12:18:51.846Z,101890.26
2023-05-12T12:21:28.129Z,101890.96
2023-05-12T12:23:59.845Z,101889.24
2023-05-12T12:26:28.333Z,101885.61
2023-05-12T12:28:59.840Z,101885.84
2023-05-12T12:31:36.667Z,101885.92
2023-05-12T12:34:05.158Z,101883.89
2023-05-12T12:36:36.921Z,101881.10
2023-05-12T12:39:05.350Z,101879.32
2023-05-12T12:42:05.318Z,101883.92
2023-05-12T12:44:50.310Z,101879.58
2023-05-12T12:47:24.904Z,101875.99
2023-05-12T12:49:53.418Z,101874.94
2023-05-12T12:52:31.024Z,101871.46
2023-05-12T12:55:02.661Z,101875.49
2023-05-12T12:57:31.187Z,101874.83
2023-05-12T13:00:02.984Z,101874.20
2023-05-12T13:02:31.324Z,101873.84
2023-05-12T13:05:07.240Z,101870.89
2023-05-12T13:07:35.812Z,101868.31
2023-05-12T13:10:05.089Z,101865.48
2023-05-12T13:12:39.119Z,101865.77
2023-05-12T13:15:32.399Z,101864.73
2023-05-12T13:18:03.907Z,101861.54
2023-05-12T13:20:36.454Z,101854.89
2023-05-12T13:23:11.028Z,101856.45
2023-05-12T13:25:44.935Z,101852.25
2023-05-12T13:28:23.590Z,101850.08
2023-05-12T13:31:15.285Z,101849.98
2023-05-12T13:33:46.356Z,101847.98
2023-05-12T13:36:17.669Z,101846.80
2023-05-12T13:38:56.477Z,101848.45
2023-05-12T13:41:25.017Z,101847.91
2023-05-12T13:44:11.594Z,101842.59
2023-05-12T13:47:00.203Z,101843.38
2023-05-12T13:49:36.869Z,101842.41
2023-05-12T13:52:57.751Z,101843.00
2023-05-12T13:55:40.604Z,101839.59
2023-05-12T13:58:46.516Z,101842.09
2023-05-12T14:02:11.969Z,101841.95
2023-05-12T14:05:35.944Z,101845.55
2023-05-12T14:09:11.890Z,101845.02
2023-05-12T14:11:54.590Z,101844.97
2023-05-12T14:14:23.221Z,101841.76
2023-05-12T14:16:55.094Z,101835.92
2023-05-12T14:19:23.658Z,101833.31
2023-05-12T14:21:52.134Z,101832.70
2023-05-12T14:24:20.531Z,101832.88
2023-05-12T14:26:51.636Z,101830.61
2023-05-12T14:29:19.912Z,101828.16
2023-05-12T14:31:48.307Z,101828.23
2023-05-12T14:34:19.311Z,101827.26
2023-05-12T14:36:50.376Z,101827.50
2023-05-12T14:39:21.844Z,101827.81
2023-05-12T14:41:53.618Z,101831.00
2023-05-12T14:44:21.900Z,101831.46
2023-05-12T14:46:50.226Z,101830.59
2023-05-12T14:49:59.211Z,101831.39
2023-05-12T14:52:57.562Z,101829.07
2023-05-12T14:55:41.442Z,101831.75
2023-05-12T14:58:36.490Z,101832.83
2023-05-12T15:01:54.331Z,101831.25
2023-05-12T15:05:00.188Z,101830.91
2023-05-12T15:08:26.045Z,101828.15
2023-05-12T15:12:04.124Z,101831.94
2023-05-12T15:15:40.651Z,101829.61
2023-05-12T15:18:23.764Z,101836.02
2023-05-12T15:21:42.973Z,101835.28
2023-05-12T15:24:20.355Z,101835.50
2023-05-12T15:26:49.040Z,101835.78
2023-05-12T15:29:37.399Z,101836.34
2023-05-12T15:35:24.263Z,101833.86
2023-05-12T15:38:29.285Z,101835.40
2023-05-12T15:42:02.165Z,101832.58
2023-05-12T15:45:35.658Z,101828.55
2023-05-12T15:48:24.419Z,101826.72
2023-05-12T15:51:47.212Z,101827.47
2023-05-12T15:54:49.842Z,101824.88
2023-05-12T15:57:33.075Z,101824.00
2023-05-12T16:00:27.792Z,101821.38
2023-05-12T16:03:17.394Z,101818.58
2023-05-12T16:06:02.076Z,101817.75
2023-05-12T16:09:00.784Z,101816.83
2023-05-12T16:12:17.813Z,101817.85
2023-05-12T16:15:40.371Z,101819.42
2023-05-12T16:18:31.935Z,101821.41
2023-05-12T16:22:03.359Z,101822.60
2023-05-12T16:24:56.592Z,101819.90
2023-05-12T16:28:28.411Z,101822.02
2023-05-12T16:32:03.868Z,101824.48
2023-05-12T16:35:04.623Z,101821.02
2023-05-12T16:38:32.360Z,101819.20
2023-05-12T16:41:41.580Z,101822.56
2023-05-12T16:44:50.765Z,101825.64
2023-05-12T16:47:53.328Z,101822.87
2023-05-12T16:51:16.780Z,101826.05
2023-05-12T16:54:55.128Z,101822.17
2023-05-12T16:58:42.679Z,101816.72
2023-05-12T17:01:34.598Z,101810.48
2023-05-12T17:04:03.181Z,101807.44
2023-05-12T17:06:32.028Z,101807.02
2023-05-12T17:09:12.713Z,101809.45
2023-05-12T17:11:41.116Z,101814.73
2023-05-12T17:14:12.639Z,101815.44
2023-05-12T17:16:44.885Z,101816.09
2023-05-12T17:19:14.400Z,101813.84
2023-05-12T17:21:52.145Z,101808.61
2023-05-12T17:24:24.515Z,101809.20
2023-05-12T17:27:06.917Z,101809.06
2023-05-12T17:29:35.724Z,101809.53
2023-05-12T17:32:05.741Z,101816.16
2023-05-12T17:35:08.517Z,101819.58
2023-05-12T17:37:40.330Z,101818.16
2023-05-12T17:40:40.031Z,101812.84
2023-05-12T17:43:18.622Z,101813.10
2023-05-12T17:46:00.539Z,101815.06
2023-05-12T17:48:38.450Z,101816.91
2023-05-12T17:51:39.237Z,101818.92
2023-05-12T17:54:17.817Z,101826.33
2023-05-12T17:56:48.789Z,101831.70
2023-05-12T17:59:20.646Z,101828.24
2023-05-12T18:01:56.563Z,101828.40
2023-05-12T18:05:07.659Z,101836.85
2023-05-12T18:07:56.080Z,101840.58
2023-05-12T18:10:51.248Z,101843.80
2023-05-12T18:13:27.646Z,101846.80
2023-05-12T18:16:36.495Z,101842.65
2023-05-12T18:19:27.652Z,101840.81
2023-05-12T18:21:59.242Z,101848.59
2023-05-12T18:24:58.008Z,101849.52
2023-05-12T18:27:47.002Z,101850.20
2023-05-12T18:30:18.704Z,101851.66
2023-05-12T18:32:54.789Z,101850.06
2023-05-12T18:35:27.156Z,101846.23
2023-05-12T18:37:58.835Z,101848.60
2023-05-12T18:40:35.281Z,101854.33
2023-05-12T18:43:03.868Z,101854.38
2023-05-12T18:46:03.973Z,101852.33
2023-05-12T18:48:54.141Z,101856.91
2023-05-12T18:52:00.707Z,101860.77
2023-05-12T18:54:44.224Z,101861.53
2023-05-12T18:57:35.389Z,101862.57
2023-05-12T19:00:12.899Z,101866.44
2023-05-12T19:02:42.453Z,101865.64
2023-05-12T19:05:13.932Z,101864.36
2023-05-12T19:07:52.128Z,101870.60
2023-05-12T19:10:29.166Z,101876.17
2023-05-12T19:13:00.426Z,101879.17
2023-05-12T19:16:23.804Z,101877.50
2023-05-12T19:18:57.755Z,101881.23
2023-05-12T19:21:37.242Z,101888.57
2023-05-12T19:24:09.193Z,101889.30
2023-05-12T19:26:37.627Z,101890.13
2023-05-12T19:29:12.165Z,101892.48
2023-05-12T19:31:41.109Z,101891.48
2023-05-12T19:34:09.648Z,101889.35
2023-05-12T19:36:41.173Z,101885.91
2023-05-12T19:39:10.210Z,101883.81
2023-05-12T19:41:40.078Z,101884.85
2023-05-12T19:44:12.069Z,101885.23
2023-05-12T19:46:40.401Z,101889.70
2023-05-12T19:49:18.657Z,101894.49
2023-05-12T19:52:30.591Z,101901.45
2023-05-12T19:55:12.042Z,101903.10
2023-05-12T19:57:48.187Z,101902.66
2023-05-12T20:00:39.912Z,101901.48
2023-05-12T20:03:08.949Z,101901.61
2023-05-12T20:05:49.032Z,101900.13
2023-05-12T20:08:17.959Z,101896.61
2023-05-12T20:11:24.802Z,101896.65
2023-05-12T20:14:22.866Z,101896.13
2023-05-12T20:17:31.880Z,101896.66
2023-05-12T20:20:50.129Z,101894.63
2023-05-12T20:23:18.777Z,101896.36
2023-05-12T20:25:50.291Z,101894.91
2023-05-12T20:28:24.136Z,101896.73
2023-05-12T20:31:33.386Z,101894.91
2023-05-12T20:34:24.190Z,101895.77
2023-05-12T20:36:55.384Z,101897.33
2023-05-12T20:39:30.147Z,101897.65
2023-05-12T20:42:00.126Z,101901.48
2023-05-12T20:44:38.738Z,101899.83
2023-05-12T20:47:13.096Z,101904.36
2023-05-12T20:49:47.921Z,101898.15
2023-05-12T20:52:32.141Z,101900.44
2023-05-12T20:55:04.044Z,101905.48
2023-05-12T20:57:32.531Z,101903.21
2023-05-12T21:00:04.682Z,101907.06
2023-05-12T21:02:56.860Z,101910.51
2023-05-12T21:05:41.970Z,101911.86
2023-05-12T21:08:14.242Z,101911.63
2023-05-12T21:10:52.095Z,101912.05
2023-05-12T21:13:31.009Z,101914.35
2023-05-12T21:16:22.647Z,101917.70
2023-05-12T21:18:51.629Z,101918.54
2023-05-12T21:21:31.739Z,101920.75
2023-05-12T21:24:03.043Z,101921.21
2023-05-12T21:26:39.731Z,101923.77
2023-05-12T21:29:10.631Z,101922.64
2023-05-12T21:31:41.912Z,101921.42
2023-05-12T21:34:24.737Z,101921.05
2023-05-12T21:37:45.255Z,101922.95
2023-05-12T21:41:05.343Z,101930.71
2023-05-12T21:44:17.147Z,101927.21
2023-05-12T21:47:04.221Z,101928.78
2023-05-12T21:49:57.705Z,101928.47
2023-05-12T21:52:36.598Z,101931.55
2023-05-12T21:55:34.070Z,101932.34
2023-05-12T21:58:05.704Z,101934.11
2023-05-12T22:01:19.676Z,101936.71
2023-05-12T22:04:04.366Z,101939.70
2023-05-12T22:06:48.054Z,101942.09
2023-05-12T22:09:20.495Z,101940.29
2023-05-12T22:12:25.852Z,101940.53
2023-05-12T22:15:07.011Z,101938.36
2023-05-12T22:17:49.645Z,101937.42
2023-05-12T22:20:25.889Z,101936.79
2023-05-12T22:23:30.529Z,101934.16
2023-05-12T22:26:21.902Z,101930.19
2023-05-12T22:28:53.774Z,101930.23
2023-05-12T22:31:42.995Z,101932.52
2023-05-12T22:34:27.277Z,101933.79
2023-05-12T22:37:09.389Z,101936.27
2023-05-12T22:40:10.681Z,101932.10
2023-05-12T22:43:01.981Z,101937.96
2023-05-12T22:45:57.513Z,101941.39
2023-05-12T22:48:29.474Z,101943.23
2023-05-12T22:51:04.671Z,101945.40
2023-05-12T22:53:49.572Z,101943.49
2023-05-12T22:56:29.487Z,101942.69
2023-05-12T22:59:23.234Z,101942.75
2023-05-12T23:02:18.233Z,101944.02
2023-05-12T23:04:49.546Z,101941.08
2023-05-12T23:07:22.928Z,101945.32
2023-05-12T23:10:15.641Z,101947.94
2023-05-12T23:12:53.369Z,101948.48
2023-05-12T23:15:43.264Z,101950.14
2023-05-12T23:18:37.588Z,101944.52
2023-05-12T23:21:12.402Z,101945.95
2023-05-12T23:24:07.798Z,101947.95
2023-05-12T23:26:53.275Z,101949.65
2023-05-12T23:29:42.006Z,101950.37
2023-05-12T23:32:42.598Z,101953.73
2023-05-12T23:35:16.080Z,101954.62
2023-05-12T23:37:58.922Z,101953.29
2023-05-12T23:40:44.578Z,101948.38
2023-05-12T23:43:46.182Z,101951.02
2023-05-12T23:47:13.480Z,101947.39
2023-05-12T23:50:51.566Z,101947.11
2023-05-12T23:53:34.166Z,101947.69
2023-05-12T23:56:10.051Z,101946.67
2023-05-12T23:58:59.441Z,101943.54
